Honaker, Kentucky
Current Conditions -  °F | °C
As of 8:55 PM on Monday 24 Nov 2014 (Local Time) from KPBX Reporting Station
Clear Clear  
Wind Chill: 54°   Ceiling: Unl
Heat Index: 54°   Visibility: 10mi
Dew Point: 37°   Wind: 9mph
Humidity: 53%   Direction: 270°W
Pressure: 29.88"   Gusts: 21mph
Location:  37.5777°N, 82.6966°W
Report Text: KPBX 250155Z AUTO 27008G18KT 10SM CLR 12/03 A2988 RMK AO2 T01220028
Loading
Personal Weather Stations






























Interactive Weather Map New forecast layout! Learn more

10-Day Weather Forecast

Advertisements
Track Severe Weather on mobile